ADDS METAR Data INFO
IDs: Format: Raw Decoded Include TAF

Data at: 2103 UTC 19 Jul 2018

K1A9 192055Z AUTO 03005KT 10SM CLR 28/25 A2990 RMK AO2 60005 T02780253
K1A9 192035Z AUTO 06006KT 10SM SCT031 SCT041 28/25 A2991 RMK AO2 T02760247
K1A9 192015Z AUTO 29003KT 10SM -DZ SCT040 SCT050 BKN065 26/24 A2989 RMK AO2 T02590239
K1A9 191955Z AUTO 00000KT 10SM SCT055 SCT085 BKN100 25/23 A2991 RMK AO2 P0004 T02500232
K1A9 191935Z AUTO 00000KT 10SM -RA SCT033 SCT045 SCT055 25/24 A2991 RMK AO2 P0004 T02470241
K1A9 191915Z AUTO 18003KT 5SM RA SCT050 BKN070 OVC090 25/23 A2992 RMK AO2 P0003 T02510232
K1A9 191855Z AUTO 04003KT 7SM RA SCT027 BKN075 OVC085 25/23 A2992 RMK AO2 P0001 T02510233
K1A9 191835Z AUTO 03005KT 7SM -RA SCT011 BKN044 OVC075 27/23 A2991 RMK AO2 T02650227
K1A9 191815Z AUTO 34008G19KT 290V020 10SM SCT023 BKN033 BKN060 29/24 A2991 RMK AO2 T02930237
K1A9 191755Z AUTO 26007KT 10SM SCT028 BKN035 BKN042 30/26 A2991 RMK AO2 T03030262 10310 20225
K1A9 191735Z AUTO 26004KT 10SM SCT028 BKN070 31/26 A2992 RMK AO2 T03050256
K1A9 191715Z AUTO 00000KT 10SM SCT070 31/25 A2993 RMK AO2 T03090253
K1A9 191655Z AUTO 00000KT 10SM CLR 30/24 A2994 RMK AO2 T03040243
K1A9 191635Z AUTO 00000KT 10SM CLR 30/25 A2995 RMK AO2 T02970245
K1A9 191615Z AUTO 00000KT 10SM CLR 29/25 A2995 RMK AO2 T02920250
K1A9 191555Z AUTO 00000KT 10SM SCT016 29/25 A2995 RMK AO2 T02860253
K1A9 191535Z AUTO 00000KT 10SM SCT013 28/25 A2995 RMK AO2 T02830251
K1A9 191515Z AUTO 24003KT 10SM SCT013 28/25 A2995 RMK AO2 T02790251
K1A9 191455Z AUTO 00000KT 10SM CLR 28/25 A2994 RMK AO2 T02770250
K1A9 191435Z AUTO 00000KT 10SM CLR 27/25 A2995 RMK AO2 T02670246
K1A9 191415Z AUTO 00000KT 10SM SCT008 26/24 A2995 RMK AO2 T02620244
K1A9 191355Z AUTO 28003KT 10SM BKN008 26/24 A2995 RMK AO2 T02550241
K1A9 191335Z AUTO 00000KT 10SM CLR 25/24 A2995 RMK AO2 T02540238
K1A9 191315Z AUTO 00000KT 10SM CLR 25/24 A2995 RMK AO2 T02470238
K1A9 191255Z AUTO 00000KT 10SM SCT003 24/24 A2995 RMK AO2 T02400235
K1A9 191235Z AUTO 00000KT 10SM SCT003 23/23 A2995 RMK AO2 T02330232
K1A9 191215Z AUTO 00000KT 10SM SCT003 23/23 A2995 RMK AO2 T02300230
K1A9 191155Z AUTO 00000KT 10SM SCT120 23/23 A2994 RMK AO2 70104 T02250225 10225 20219
K1A9 191135Z AUTO 00000KT 10SM SCT120 22/22 A2993 RMK AO2 T02210221
K1A9 191115Z AUTO 00000KT 10SM SCT120 22/22 A2993 RMK AO2 T02200220
K1A9 191055Z AUTO 00000KT 7SM SCT120 22/22 A2992 RMK AO2 T02190219
K1A9 191035Z AUTO 00000KT 10SM SCT002 22/22 A2992 RMK AO2 T02200220
K1A9 191015Z AUTO 00000KT 10SM BKN002 22/22 A2992 RMK AO2 T02200220
K1A9 190955Z AUTO 00000KT 10SM CLR 22/22 A2991 RMK AO2 T02200220
K1A9 190935Z AUTO 30003KT 10SM CLR 22/22 A2991 RMK AO2 T02200220
K1A9 190915Z AUTO 00000KT 10SM CLR 22/22 A2991 RMK AO2 T02200220
K1A9 190855Z AUTO 26003KT 10SM CLR 22/22 A2991 RMK AO2 T02200220
K1A9 190835Z AUTO 00000KT 10SM SCT050 22/22 A2991 RMK AO2 T02210221
K1A9 190815Z AUTO 00000KT 10SM SCT050 22/22 A2990 RMK AO2 T02200220
K1A9 190755Z AUTO 00000KT 10SM SCT002 22/22 A2991 RMK AO2 T02210221
K1A9 190735Z AUTO 00000KT 5SM BR SCT002 22/22 A2990 RMK AO2 T02210221
K1A9 190715Z AUTO 00000KT 7SM CLR 22/22 A2990 RMK AO2 T02230223
K1A9 190655Z AUTO 00000KT 5SM BR CLR 22/22 A2990 RMK AO2 T02230223
K1A9 190635Z AUTO 00000KT 7SM CLR 23/23 A2990 RMK AO2 T02250225
K1A9 190615Z AUTO 00000KT 10SM CLR 23/23 A2991 RMK AO2 T02250225
K1A9 190555Z AUTO 00000KT 10SM CLR 23/23 A2991 RMK AO2 T02260226 10242 20225 403260225
K1A9 190535Z AUTO 00000KT 7SM SCT055 23/23 A2991 RMK AO2 T02260226
K1A9 190515Z AUTO 00000KT 7SM SCT055 23/23 A2992 RMK AO2 T02260226
K1A9 190455Z AUTO 00000KT 7SM CLR 23/23 A2993 RMK AO2 T02270227
K1A9 190435Z AUTO 00000KT 7SM CLR 23/23 A2993 RMK AO2 T02270227
K1A9 190415Z AUTO 00000KT 10SM CLR 23/23 A2993 RMK AO2 T02300230
K1A9 190355Z AUTO 00000KT 7SM CLR 23/23 A2993 RMK AO2 T02300230
K1A9 190335Z AUTO 00000KT 10SM CLR 23/23 A2993 RMK AO2 T02320232
K1A9 190315Z AUTO 00000KT 10SM CLR 23/23 A2993 RMK AO2 T02330233
K1A9 190255Z AUTO 00000KT 10SM SCT006 24/24 A2993 RMK AO2 T02350235
K1A9 190235Z AUTO 00000KT 10SM SCT006 23/23 A2993 RMK AO2 T02330233
K1A9 190215Z AUTO 00000KT 10SM CLR 24/24 A2993 RMK AO2 T02350235
K1A9 190155Z AUTO 00000KT 10SM SCT120 24/24 A2992 RMK AO2 T02370237
K1A9 190135Z AUTO 00000KT 10SM BKN110 24/24 A2992 RMK AO2 T02380238
K1A9 190115Z AUTO 00000KT 10SM BKN110 24/24 A2992 RMK AO2 T02400238
K1A9 190055Z AUTO 00000KT 10SM SCT070 SCT080 SCT100 24/24 A2992 RMK AO2 T02380238
K1A9 190035Z AUTO 00000KT 10SM -RA SCT080 SCT100 24/24 A2991 RMK AO2 T02400240
K1A9 190015Z AUTO 00000KT 10SM SCT120 24/24 A2990 RMK AO2 T02400240
K1A9 182355Z AUTO 31003KT 10SM SCT110 24/24 A2990 RMK AO2 60104 T02410240 10326 20235
K1A9 182335Z AUTO 30003KT 10SM SCT100 24/24 A2990 RMK AO2 T02400240
K1A9 182315Z AUTO 31003KT 10SM SCT100 24/24 A2990 RMK AO2 T02400240
K1A9 182255Z AUTO 28003KT 10SM SCT050 SCT090 24/24 A2990 RMK AO2 P0001 T02400240
K1A9 182235Z AUTO 29003KT 10SM SCT046 SCT050 SCT090 24/24 A2992 RMK AO2 P0001 T02410240
K1A9 182215Z AUTO 02003KT 10SM -RA SCT050 SCT070 BKN100 24/24 A2991 RMK AO2 P0001 T02400239
K1A9 182155Z AUTO 23004KT 10SM RA SCT050 BKN080 OVC110 24/23 A2990 RMK AO2 P0065 T02350233
K1A9 182135Z AUTO 16004KT 5SM -RA SCT017 BKN046 OVC085 24/24 A2991 RMK AO2 P0062 T02360235
K1A9 182115Z AUTO 08004KT 3/4SM +RA BKN014 OVC021 24/24 A2993 RMK AO2 P0046 T02380238
K1A9 182055Z AUTO 09012G18KT 1SM +RA BKN015 OVC030 24/24 A2993 RMK AO2 P0036 60036 T02440237
K1A9 182035Z AUTO 09015G23KT 10SM BKN032 BKN038 OVC050 27/23 A2990 RMK AO2 T02720231
K1A9 182015Z AUTO 00000KT 10SM BKN034 BKN055 BKN070 32/24 A2990 RMK AO2 T03180242
K1A9 181955Z AUTO 24005KT 10SM SCT036 SCT055 BKN070 33/25 A2991 RMK AO2 T03260249
K1A9 181935Z AUTO 25006KT 10SM SCT035 BKN042 BKN050 32/25 A2993 RMK AO2 T03190248
K1A9 181915Z AUTO 22003KT 10SM SCT034 SCT040 SCT050 32/25 A2993 RMK AO2 T03210245
K1A9 181855Z AUTO 25005KT 10SM BKN032 BKN038 BKN060 32/24 A2993 RMK AO2 T03200242
K1A9 181835Z AUTO 00000KT 10SM SCT031 SCT036 SCT060 31/25 A2994 RMK AO2 T03120245
K1A9 181815Z AUTO 00000KT 10SM BKN031 32/24 A2995 RMK AO2 T03180244
K1A9 181755Z AUTO 21003KT 10SM BKN031 BKN038 31/24 A2996 RMK AO2 T03090242 10313 20235
K1A9 181735Z AUTO 00000KT 10SM SCT028 31/24 A2997 RMK AO2 T03070239
K1A9 181715Z AUTO 32004KT 10SM SCT029 SCT035 31/24 A2997 RMK AO2 T03050241
K1A9 181655Z AUTO 00000KT 10SM SCT029 SCT038 30/24 A2997 RMK AO2 T02990238
K1A9 181635Z AUTO 26003KT 10SM SCT027 31/25 A2998 RMK AO2 T03050246
K1A9 181615Z AUTO 28004KT 10SM SCT025 30/24 A2998 RMK AO2 T02970242
K1A9 181555Z AUTO 27007KT 10SM SCT023 30/24 A2998 RMK AO2 T02950241
K1A9 181535Z AUTO 00000KT 10SM CLR 29/24 A2998 RMK AO2 T02910242
K1A9 181515Z AUTO 00000KT 10SM CLR 28/24 A2999 RMK AO2 T02830242
K1A9 181455Z AUTO 00000KT 10SM SCT013 28/24 A2999 RMK AO2 T02750241
K1A9 181435Z AUTO 28005KT 10SM BKN013 OVC023 27/24 A3000 RMK AO2 T02700242
K1A9 181415Z AUTO 00000KT 10SM BKN009 OVC021 26/24 A2999 RMK AO2 T02610244
K1A9 181355Z AUTO 00000KT 10SM BKN009 OVC019 25/24 A3000 RMK AO2 T02520240
K1A9 181335Z AUTO 00000KT 10SM BKN007 OVC017 25/24 A3000 RMK AO2 T02460236
K1A9 181315Z AUTO 00000KT 10SM OVC007 24/24 A3000 RMK AO2 T02440236
K1A9 181255Z AUTO 00000KT 10SM OVC005 24/24 A3000 RMK AO2 T02410236
K1A9 181235Z AUTO 00000KT 10SM OVC005 24/24 A3000 RMK AO2 T02390236
K1A9 181215Z AUTO 26003KT 10SM OVC003 24/24 A3000 RMK AO2 T02370236
K1A9 181155Z AUTO 29003KT 7SM OVC003 24/24 A2999 RMK AO2 T02350235 10237 20230
K1A9 181135Z AUTO 28003KT 5SM BR OVC003 23/23 A2999 RMK AO2 T02330233
K1A9 181115Z AUTO 28003KT 5SM BR OVC003 23/23 A2998 RMK AO2 T02320232
K1A9 181055Z AUTO 29003KT 7SM OVC003 23/23 A2998 RMK AO2 T02340234
K1A9 181035Z AUTO 28008KT 7SM OVC003 24/24 A2997 RMK AO2 T02350235
K1A9 181015Z AUTO 27006KT 7SM OVC003 23/23 A2997 RMK AO2 T02330233
K1A9 180955Z AUTO 27003KT 4SM BR OVC003 23/23 A2996 RMK AO2 T02310231
K1A9 180935Z AUTO 00000KT 1 3/4SM BR OVC003 23/23 A2995 RMK AO2 T02310231
K1A9 180915Z AUTO 00000KT 7SM OVC003 23/23 A2995 RMK AO2 T02310231